createdAt,value
2022-08-30T00:01:30.030Z,19.66
2022-08-30T00:04:00.058Z,19.68
2022-08-30T00:06:30.509Z,19.64
2022-08-30T00:09:02.747Z,19.68
2022-08-30T00:11:33.217Z,19.65
2022-08-30T00:14:02.050Z,19.60
2022-08-30T00:16:31.009Z,19.56
2022-08-30T00:19:02.243Z,19.56
2022-08-30T00:21:30.442Z,19.56
2022-08-30T00:23:58.713Z,19.54
2022-08-30T00:26:27.652Z,19.54
2022-08-30T00:29:01.466Z,19.52
2022-08-30T00:31:33.855Z,19.51
2022-08-30T00:34:02.246Z,19.54
2022-08-30T00:36:34.772Z,19.55
2022-08-30T00:39:05.545Z,19.54
2022-08-30T00:41:37.482Z,19.58
2022-08-30T00:44:08.617Z,19.61
2022-08-30T00:46:39.764Z,19.53
2022-08-30T00:49:11.015Z,19.55
2022-08-30T00:51:41.917Z,19.54
2022-08-30T00:54:10.867Z,19.53
2022-08-30T00:56:39.248Z,19.51
2022-08-30T00:59:12.854Z,19.54
2022-08-30T01:01:42.696Z,19.48
2022-08-30T01:04:16.984Z,19.49
2022-08-30T01:09:35.436Z,19.53
2022-08-30T01:12:10.536Z,19.55
2022-08-30T01:14:38.784Z,19.55
2022-08-30T01:17:10.015Z,19.56
2022-08-30T01:19:44.874Z,19.58
2022-08-30T01:22:39.217Z,19.59
2022-08-30T01:28:01.736Z,19.54
2022-08-30T01:30:30.831Z,19.57
2022-08-30T01:33:03.325Z,19.58
2022-08-30T01:35:56.770Z,19.60
2022-08-30T01:38:28.843Z,19.63
2022-08-30T01:41:09.986Z,19.61
2022-08-30T01:43:39.945Z,19.56
2022-08-30T01:46:11.168Z,19.57
2022-08-30T01:48:42.289Z,19.50
2022-08-30T01:51:18.528Z,19.43
2022-08-30T01:53:50.969Z,19.36
2022-08-30T01:56:19.652Z,19.37
2022-08-30T01:58:47.951Z,19.27
2022-08-30T02:01:20.482Z,19.27
2022-08-30T02:03:54.646Z,19.29
2022-08-30T02:06:25.184Z,19.27
2022-08-30T02:09:11.776Z,19.22
2022-08-30T02:11:45.741Z,19.20
2022-08-30T02:14:14.781Z,19.18
2022-08-30T02:16:42.973Z,19.13
2022-08-30T02:19:13.170Z,19.14
2022-08-30T02:21:48.318Z,19.19
2022-08-30T02:24:16.613Z,19.19
2022-08-30T02:26:45.085Z,19.15
2022-08-30T02:29:14.522Z,19.10
2022-08-30T02:31:43.164Z,19.09
2022-08-30T02:34:14.185Z,19.10
2022-08-30T02:36:49.334Z,19.10
2022-08-30T02:39:21.288Z,19.04
2022-08-30T02:41:50.190Z,19.04
2022-08-30T02:44:18.569Z,19.06
2022-08-30T02:46:54.619Z,19.03
2022-08-30T02:49:33.104Z,19.06
2022-08-30T02:52:08.137Z,19.08
2022-08-30T02:54:38.240Z,19.05
2022-08-30T02:57:06.956Z,19.02
2022-08-30T02:59:42.021Z,19.04
2022-08-30T03:02:11.632Z,19.06
2022-08-30T03:04:46.236Z,19.08
2022-08-30T03:07:16.377Z,19.10
2022-08-30T03:09:50.291Z,19.15
2022-08-30T03:12:19.068Z,19.20
2022-08-30T03:14:52.554Z,19.27
2022-08-30T03:17:20.696Z,19.33
2022-08-30T03:19:51.790Z,19.38
2022-08-30T03:22:21.592Z,19.43
2022-08-30T03:24:51.930Z,19.49
2022-08-30T03:27:22.978Z,19.53
2022-08-30T03:29:54.320Z,19.56
2022-08-30T03:35:45.635Z,19.62
2022-08-30T03:41:07.525Z,19.53
2022-08-30T03:43:37.857Z,19.48
2022-08-30T03:46:06.568Z,19.45
2022-08-30T03:48:34.848Z,19.40
2022-08-30T03:51:03.258Z,19.41
2022-08-30T03:53:34.497Z,19.43
2022-08-30T03:56:03.882Z,19.45
2022-08-30T03:58:40.762Z,19.46
2022-08-30T04:01:19.798Z,19.46
2022-08-30T04:03:48.303Z,19.48
2022-08-30T04:09:14.728Z,19.50
2022-08-30T04:11:43.034Z,19.50
2022-08-30T04:14:25.378Z,19.50
2022-08-30T04:17:00.891Z,19.51
2022-08-30T04:22:13.094Z,19.43
2022-08-30T04:24:41.830Z,19.43
2022-08-30T04:27:20.609Z,19.45
2022-08-30T04:29:50.491Z,19.46
2022-08-30T04:32:19.569Z,19.48
2022-08-30T04:34:47.881Z,19.46
2022-08-30T04:37:27.886Z,19.44
2022-08-30T04:40:10.977Z,19.44
2022-08-30T04:42:39.437Z,19.45
2022-08-30T04:45:12.960Z,19.46
2022-08-30T04:47:42.888Z,19.43
2022-08-30T04:50:14.105Z,19.40
2022-08-30T04:52:42.677Z,19.37
2022-08-30T04:55:11.926Z,19.35
2022-08-30T04:57:41.029Z,19.34
2022-08-30T05:00:19.499Z,19.34
2022-08-30T05:02:48.675Z,19.31
2022-08-30T05:05:40.094Z,19.30
2022-08-30T05:08:24.897Z,19.31
2022-08-30T05:10:53.375Z,19.33
2022-08-30T05:13:36.945Z,19.38
2022-08-30T05:16:20.415Z,19.42
2022-08-30T05:18:58.909Z,19.42
2022-08-30T05:21:28.699Z,19.42
2022-08-30T05:24:00.262Z,19.41
2022-08-30T05:26:33.673Z,19.39
2022-08-30T05:29:02.217Z,19.39
2022-08-30T05:31:39.581Z,19.35
2022-08-30T05:34:11.910Z,19.33
2022-08-30T05:36:40.603Z,19.30
2022-08-30T05:39:12.720Z,19.30
2022-08-30T05:41:47.079Z,19.33
2022-08-30T05:44:15.328Z,19.37
2022-08-30T05:46:47.714Z,19.43
2022-08-30T05:52:14.569Z,19.49
2022-08-30T05:54:42.983Z,19.46
2022-08-30T05:57:18.635Z,19.47
2022-08-30T06:00:25.899Z,19.54
2022-08-30T06:02:54.958Z,19.63
2022-08-30T06:05:23.737Z,19.70
2022-08-30T06:07:51.961Z,19.82
2022-08-30T06:10:20.929Z,19.96
2022-08-30T06:12:54.375Z,20.10
2022-08-30T06:15:22.590Z,20.29
2022-08-30T06:17:51.248Z,20.44
2022-08-30T06:20:26.923Z,20.59
2022-08-30T06:22:56.232Z,20.74
2022-08-30T06:25:41.926Z,20.84
2022-08-30T06:31:21.977Z,21.02
2022-08-30T06:33:52.965Z,21.16
2022-08-30T06:36:27.710Z,21.24
2022-08-30T06:38:58.322Z,21.30
2022-08-30T06:41:29.497Z,21.35
2022-08-30T06:44:00.498Z,21.45
2022-08-30T06:46:39.901Z,21.55
2022-08-30T06:49:08.771Z,21.63
2022-08-30T06:51:39.864Z,21.70
2022-08-30T06:54:28.230Z,21.79
2022-08-30T06:56:58.470Z,21.91
2022-08-30T06:59:28.105Z,21.95
2022-08-30T07:02:03.516Z,22.01
2022-08-30T07:04:35.345Z,22.17
2022-08-30T07:07:23.712Z,22.25
2022-08-30T07:12:48.315Z,22.50
2022-08-30T07:15:20.666Z,22.61
2022-08-30T07:18:07.868Z,22.77
2022-08-30T07:20:39.950Z,22.85
2022-08-30T07:25:52.466Z,22.87
2022-08-30T07:28:36.891Z,22.82
2022-08-30T07:36:30.174Z,22.93
2022-08-30T07:41:40.665Z,23.02
2022-08-30T07:44:09.393Z,23.05
2022-08-30T07:46:39.628Z,23.10
2022-08-30T07:49:11.329Z,23.28
2022-08-30T07:51:41.321Z,23.41
2022-08-30T07:54:18.630Z,23.56
2022-08-30T07:56:46.997Z,23.63
2022-08-30T07:59:15.303Z,23.75
2022-08-30T08:01:51.014Z,23.85
2022-08-30T08:04:20.266Z,23.87
2022-08-30T08:06:48.641Z,24.01
2022-08-30T08:09:17.113Z,24.09
2022-08-30T08:11:45.478Z,24.14
2022-08-30T08:14:13.677Z,24.18
2022-08-30T08:16:44.901Z,24.30
2022-08-30T08:19:13.255Z,24.39
2022-08-30T08:22:04.122Z,24.51
2022-08-30T08:24:40.133Z,24.68
2022-08-30T08:27:08.960Z,24.83
2022-08-30T08:29:44.214Z,24.96
2022-08-30T08:32:12.618Z,25.11
2022-08-30T08:34:41.635Z,25.26
2022-08-30T08:37:27.781Z,25.41
2022-08-30T08:39:56.447Z,25.53
2022-08-30T08:42:47.932Z,25.67
2022-08-30T08:45:24.692Z,25.73
2022-08-30T08:48:09.673Z,25.80
2022-08-30T08:51:13.956Z,25.89
2022-08-30T08:53:48.119Z,26.01
2022-08-30T08:56:18.956Z,25.94
2022-08-30T08:58:52.436Z,25.82
2022-08-30T09:01:28.273Z,25.79
2022-08-30T09:04:03.209Z,25.88
2022-08-30T09:07:00.879Z,26.00
2022-08-30T09:09:41.212Z,26.16
2022-08-30T09:12:20.334Z,26.28
2022-08-30T09:14:55.575Z,26.35
2022-08-30T09:20:07.136Z,26.31
2022-08-30T09:22:37.878Z,26.25
2022-08-30T09:25:12.015Z,26.18
2022-08-30T09:27:43.344Z,26.20
2022-08-30T09:30:19.286Z,26.19
2022-08-30T09:33:00.955Z,26.16
2022-08-30T09:35:38.202Z,26.16
2022-08-30T09:38:31.114Z,26.29
2022-08-30T09:41:05.200Z,26.42
2022-08-30T09:43:35.043Z,26.53
2022-08-30T09:46:03.507Z,26.66
2022-08-30T09:51:26.493Z,27.09
2022-08-30T09:54:19.009Z,27.24
2022-08-30T09:57:11.713Z,27.35
2022-08-30T10:03:05.518Z,27.63
2022-08-30T10:05:36.527Z,27.77
2022-08-30T10:08:17.968Z,27.99
2022-08-30T10:10:53.884Z,28.27
2022-08-30T10:16:29.127Z,28.85
2022-08-30T10:19:11.146Z,28.85
2022-08-30T10:22:24.926Z,28.78
2022-08-30T10:27:55.587Z,28.36
2022-08-30T10:30:23.944Z,28.30
2022-08-30T10:33:27.350Z,28.19
2022-08-30T10:36:04.435Z,28.12
2022-08-30T10:38:44.884Z,28.12
2022-08-30T10:41:13.227Z,28.09
2022-08-30T10:44:06.866Z,28.29
2022-08-30T10:46:55.323Z,28.56
2022-08-30T10:49:27.832Z,28.65
2022-08-30T10:52:39.670Z,28.50
2022-08-30T10:55:16.219Z,28.49
2022-08-30T10:57:45.552Z,28.44
2022-08-30T11:00:23.748Z,28.48
2022-08-30T11:03:10.688Z,28.43
2022-08-30T11:05:47.553Z,28.47
2022-08-30T11:08:35.895Z,28.58
2022-08-30T11:11:26.338Z,28.61
2022-08-30T11:13:57.215Z,28.62
2022-08-30T11:16:41.838Z,28.57
2022-08-30T11:19:33.910Z,28.55
2022-08-30T11:22:25.054Z,28.47
2022-08-30T11:25:16.127Z,28.42
2022-08-30T11:28:00.491Z,28.27
2022-08-30T11:30:28.761Z,28.07
2022-08-30T11:33:25.019Z,27.92
2022-08-30T11:35:54.061Z,27.76
2022-08-30T11:38:25.690Z,27.54
2022-08-30T11:40:58.030Z,27.40
2022-08-30T11:43:36.816Z,27.24
2022-08-30T11:46:20.313Z,27.09
2022-08-30T11:49:15.783Z,26.92
2022-08-30T11:52:23.797Z,26.76
2022-08-30T11:55:15.851Z,26.58
2022-08-30T11:57:46.347Z,26.34
2022-08-30T12:00:34.847Z,26.08
2022-08-30T12:03:08.239Z,25.64
2022-08-30T12:05:40.055Z,25.28
2022-08-30T12:08:34.233Z,24.91
2022-08-30T12:11:09.692Z,24.31
2022-08-30T12:13:40.130Z,23.90
2022-08-30T12:16:12.339Z,23.48
2022-08-30T12:18:49.079Z,23.07
2022-08-30T12:21:21.463Z,22.90
2022-08-30T12:24:13.586Z,22.75
2022-08-30T12:26:47.931Z,22.80
2022-08-30T12:29:20.058Z,22.73
2022-08-30T12:32:03.387Z,22.65
2022-08-30T12:34:51.473Z,22.43
2022-08-30T12:37:25.025Z,22.13
2022-08-30T12:40:13.327Z,21.92
2022-08-30T12:43:11.849Z,21.70
2022-08-30T12:45:50.580Z,21.65
2022-08-30T12:48:20.933Z,21.54
2022-08-30T12:50:54.485Z,21.39
2022-08-30T12:53:33.633Z,21.22
2022-08-30T12:56:07.109Z,21.09
2022-08-30T13:01:37.419Z,20.94
2022-08-30T13:04:19.894Z,20.78
2022-08-30T13:06:55.391Z,20.67
2022-08-30T13:09:32.571Z,20.61
2022-08-30T13:12:07.182Z,20.54
2022-08-30T13:14:43.444Z,20.52
2022-08-30T13:17:25.753Z,20.41
2022-08-30T13:20:05.553Z,20.21
2022-08-30T13:22:40.431Z,20.02
2022-08-30T13:25:11.539Z,19.93
2022-08-30T13:27:40.322Z,19.85
2022-08-30T13:30:13.607Z,19.82
2022-08-30T13:32:43.425Z,19.88
2022-08-30T13:35:12.758Z,19.90
2022-08-30T13:37:47.338Z,19.92
2022-08-30T13:40:21.169Z,19.98
2022-08-30T13:42:50.398Z,20.12
2022-08-30T13:48:11.089Z,20.44
2022-08-30T13:50:41.273Z,20.54
2022-08-30T13:53:10.304Z,20.68
2022-08-30T13:55:41.631Z,20.79
2022-08-30T13:58:13.608Z,20.84
2022-08-30T14:00:53.732Z,21.01
2022-08-30T14:03:22.318Z,21.11
2022-08-30T14:06:29.331Z,21.26
2022-08-30T14:08:52.409Z,21.40
2022-08-30T14:11:25.016Z,21.48
2022-08-30T14:16:44.435Z,21.87
2022-08-30T14:19:15.742Z,22.11
2022-08-30T14:21:46.596Z,22.31
2022-08-30T14:24:20.068Z,22.56
2022-08-30T14:27:17.004Z,22.88
2022-08-30T14:29:46.352Z,23.05
2022-08-30T14:32:25.580Z,23.22
2022-08-30T14:34:53.900Z,23.33
2022-08-30T14:37:24.979Z,23.39
2022-08-30T14:39:53.670Z,23.53
2022-08-30T14:42:21.962Z,23.85
2022-08-30T14:44:56.850Z,24.27
2022-08-30T14:47:29.753Z,24.42
2022-08-30T14:50:01.009Z,24.28
2022-08-30T14:52:30.536Z,24.14
2022-08-30T14:55:08.841Z,24.04
2022-08-30T14:57:38.880Z,24.00
2022-08-30T15:00:11.964Z,23.83
2022-08-30T15:02:40.899Z,23.79
2022-08-30T15:05:13.603Z,23.72
2022-08-30T15:07:42.276Z,23.79
2022-08-30T15:10:15.893Z,23.75
2022-08-30T15:12:47.583Z,23.65
2022-08-30T15:15:26.781Z,23.54
2022-08-30T15:17:55.095Z,23.36
2022-08-30T15:20:23.763Z,23.25
2022-08-30T15:22:52.072Z,23.14
2022-08-30T15:25:20.740Z,22.99
2022-08-30T15:27:56.370Z,22.93
2022-08-30T15:30:45.551Z,22.92
2022-08-30T15:33:18.292Z,22.95
2022-08-30T15:36:02.259Z,22.97
2022-08-30T15:38:32.855Z,23.00
2022-08-30T15:41:09.330Z,23.05
2022-08-30T15:43:38.201Z,23.38
2022-08-30T15:46:22.879Z,23.53
2022-08-30T15:48:58.467Z,23.49
2022-08-30T15:51:26.938Z,23.53
2022-08-30T15:54:16.491Z,23.51
2022-08-30T15:56:45.424Z,23.51
2022-08-30T15:59:17.019Z,23.48
2022-08-30T16:01:47.796Z,23.39
2022-08-30T16:04:18.607Z,23.33
2022-08-30T16:06:50.130Z,23.25
2022-08-30T16:09:42.785Z,23.14
2022-08-30T16:12:23.305Z,23.00
2022-08-30T16:14:52.474Z,22.86
2022-08-30T16:17:20.898Z,22.77
2022-08-30T16:19:49.214Z,22.69
2022-08-30T16:22:22.487Z,22.59
2022-08-30T16:25:04.860Z,22.52
2022-08-30T16:27:35.308Z,22.49
2022-08-30T16:30:03.966Z,22.46
2022-08-30T16:32:32.685Z,22.44
2022-08-30T16:35:00.949Z,22.38
2022-08-30T16:37:29.240Z,22.31
2022-08-30T16:40:01.671Z,22.23
2022-08-30T16:42:29.999Z,22.13
2022-08-30T16:45:05.794Z,22.02
2022-08-30T16:47:38.882Z,21.91
2022-08-30T16:52:51.029Z,21.80
2022-08-30T16:58:05.782Z,21.98
2022-08-30T17:00:39.672Z,22.04
2022-08-30T17:03:26.424Z,22.04
2022-08-30T17:05:57.295Z,22.05
2022-08-30T17:08:25.918Z,22.05
2022-08-30T17:10:54.218Z,21.97
2022-08-30T17:13:22.715Z,21.88
2022-08-30T17:15:51.888Z,21.78
2022-08-30T17:18:20.765Z,21.72
2022-08-30T17:21:03.033Z,21.59
2022-08-30T17:23:39.206Z,21.53
2022-08-30T17:26:07.451Z,21.44
2022-08-30T17:28:46.111Z,21.38
2022-08-30T17:31:14.946Z,21.32
2022-08-30T17:33:45.572Z,21.29
2022-08-30T17:36:14.365Z,21.27
2022-08-30T17:38:51.631Z,21.24
2022-08-30T17:41:58.382Z,21.20
2022-08-30T17:44:30.638Z,21.19
2022-08-30T17:47:07.277Z,21.18
2022-08-30T17:49:36.150Z,21.17
2022-08-30T17:52:21.641Z,21.16
2022-08-30T17:54:50.760Z,21.16
2022-08-30T17:57:20.999Z,21.12
2022-08-30T18:00:33.755Z,21.09
2022-08-30T18:03:06.068Z,21.08
2022-08-30T18:05:38.337Z,21.04
2022-08-30T18:08:26.636Z,20.96
2022-08-30T18:11:02.568Z,20.94
2022-08-30T18:13:37.810Z,20.93
2022-08-30T18:16:21.779Z,20.89
2022-08-30T18:18:57.439Z,20.81
2022-08-30T18:21:28.384Z,20.75
2022-08-30T18:24:00.107Z,20.70
2022-08-30T18:26:31.710Z,20.67
2022-08-30T18:29:01.294Z,20.62
2022-08-30T18:34:53.813Z,20.64
2022-08-30T18:40:18.901Z,20.60
2022-08-30T18:43:14.150Z,20.60
2022-08-30T18:45:50.489Z,20.56
2022-08-30T18:48:31.800Z,20.55
2022-08-30T18:51:00.150Z,20.56
2022-08-30T18:53:37.391Z,20.57
2022-08-30T18:56:23.736Z,20.57
2022-08-30T18:58:57.158Z,20.58
2022-08-30T19:01:27.113Z,20.58
2022-08-30T19:03:56.664Z,20.54
2022-08-30T19:06:25.953Z,20.50
2022-08-30T19:08:58.612Z,20.45
2022-08-30T19:11:28.357Z,20.44
2022-08-30T19:14:07.196Z,20.43
2022-08-30T19:16:44.749Z,20.42
2022-08-30T19:19:21.785Z,20.37
2022-08-30T19:22:00.450Z,20.32
2022-08-30T19:24:30.390Z,20.30
2022-08-30T19:27:16.768Z,20.28
2022-08-30T19:29:48.295Z,20.23
2022-08-30T19:32:24.034Z,20.20
2022-08-30T19:35:07.321Z,20.21
2022-08-30T19:38:28.082Z,20.19
2022-08-30T19:41:13.416Z,20.19
2022-08-30T19:43:42.714Z,20.18
2022-08-30T19:46:35.015Z,20.12
2022-08-30T19:49:09.379Z,20.07
2022-08-30T19:51:46.002Z,20.02
2022-08-30T19:57:54.823Z,19.96
2022-08-30T20:00:31.659Z,19.95
2022-08-30T20:03:15.741Z,19.92
2022-08-30T20:05:51.043Z,19.86
2022-08-30T20:08:25.204Z,19.82
2022-08-30T20:10:53.849Z,19.78
2022-08-30T20:13:23.726Z,19.73
2022-08-30T20:15:55.904Z,19.69
2022-08-30T20:24:04.074Z,19.63
2022-08-30T20:26:38.422Z,19.61
2022-08-30T20:29:13.284Z,19.62
2022-08-30T20:31:55.967Z,19.62
2022-08-30T20:34:30.696Z,19.60
2022-08-30T20:36:59.265Z,19.58
2022-08-30T20:39:30.689Z,19.55
2022-08-30T20:42:00.122Z,19.53
2022-08-30T20:44:30.129Z,19.52
2022-08-30T20:47:17.691Z,19.50
2022-08-30T20:49:52.266Z,19.49
2022-08-30T20:52:23.742Z,19.45
2022-08-30T20:54:54.602Z,19.42
2022-08-30T20:57:28.005Z,19.39
2022-08-30T21:00:47.877Z,19.35
2022-08-30T21:03:38.506Z,19.36
2022-08-30T21:06:19.988Z,19.35
2022-08-30T21:08:50.507Z,19.33
2022-08-30T21:11:20.128Z,19.31
2022-08-30T21:13:57.051Z,19.26
2022-08-30T21:16:25.758Z,19.20
2022-08-30T21:18:58.360Z,19.15
2022-08-30T21:21:28.293Z,19.13
2022-08-30T21:24:17.030Z,19.10
2022-08-30T21:26:46.144Z,19.05
2022-08-30T21:29:17.831Z,19.01
2022-08-30T21:31:49.570Z,18.95
2022-08-30T21:34:18.205Z,18.89
2022-08-30T21:36:48.815Z,18.82
2022-08-30T21:39:26.852Z,18.76
2022-08-30T21:44:51.163Z,18.68
2022-08-30T21:50:02.625Z,18.64
2022-08-30T21:52:32.089Z,18.63
2022-08-30T21:55:01.094Z,18.60
2022-08-30T21:57:29.861Z,18.58
2022-08-30T21:59:58.243Z,18.58
2022-08-30T22:02:30.594Z,18.58
2022-08-30T22:05:18.837Z,18.60
2022-08-30T22:07:49.925Z,18.64
2022-08-30T22:10:33.544Z,18.65
2022-08-30T22:13:15.396Z,18.65
2022-08-30T22:15:59.807Z,18.68
2022-08-30T22:18:39.688Z,18.67
2022-08-30T22:21:10.503Z,18.65
2022-08-30T22:23:45.661Z,18.62
2022-08-30T22:26:16.591Z,18.61
2022-08-30T22:28:49.051Z,18.61
2022-08-30T22:31:19.754Z,18.61
2022-08-30T22:33:51.379Z,18.58
2022-08-30T22:36:32.377Z,18.57
2022-08-30T22:39:03.805Z,18.55
2022-08-30T22:41:44.471Z,18.55
2022-08-30T22:44:15.110Z,18.57
2022-08-30T22:46:46.157Z,18.57
2022-08-30T22:49:22.903Z,18.53
2022-08-30T22:51:55.427Z,18.50
2022-08-30T22:54:24.073Z,18.48
2022-08-30T22:56:56.059Z,18.45
2022-08-30T22:59:52.378Z,18.40
2022-08-30T23:02:20.832Z,18.36
2022-08-30T23:04:51.860Z,18.33
2022-08-30T23:07:20.318Z,18.30
2022-08-30T23:09:48.734Z,18.28
2022-08-30T23:12:17.826Z,18.25
2022-08-30T23:15:19.230Z,18.20
2022-08-30T23:17:53.662Z,18.18
2022-08-30T23:20:30.140Z,18.18
2022-08-30T23:22:58.409Z,18.21
2022-08-30T23:25:51.798Z,18.24
2022-08-30T23:28:40.416Z,18.25
2022-08-30T23:31:38.353Z,18.26
2022-08-30T23:37:26.812Z,18.26
2022-08-30T23:40:14.558Z,18.24
2022-08-30T23:43:01.820Z,18.25
2022-08-30T23:45:48.833Z,18.24
2022-08-30T23:48:52.207Z,18.25
2022-08-30T23:51:39.548Z,18.25
2022-08-30T23:54:27.629Z,18.25
2022-08-30T23:57:17.817Z,18.26
